ADDS METAR Data INFO
IDs: Format: Raw Decoded Include TAF

Data at: 1416 UTC 12 Dec 2017

KBDR 121352Z 15009KT 10SM -RA OVC033 08/04 A2964 RMK AO2 SLP038 P0001 T00780039
KBDR 121252Z 14011KT 10SM -RA OVC040 07/03 A2968 RMK AO2 RAB16 SLP050 P0000 T00720028
KBDR 121152Z 15011KT 10SM OVC037 07/02 A2973 RMK AO2 SLP066 60000 T00670017 10067 20039 56038
KBDR 121052Z AUTO 15013G20KT 10SM BKN037 OVC050 06/01 A2975 RMK AO2 RAB31E45 SLP073 P0000 T00610006
KBDR 120952Z AUTO 14011KT 10SM BKN035 OVC048 06/M01 A2980 RMK AO2 SLP091 T00561006
KBDR 120852Z AUTO 16009KT 10SM FEW045 BKN080 OVC100 06/M01 A2984 RMK AO2 SLP103 T00561011 58031
KBDR 120752Z AUTO 14007KT 10SM BKN095 OVC110 04/M02 A2987 RMK AO2 SLP114 T00441022
KBDR 120652Z AUTO 17007KT 10SM BKN090 OVC100 04/M03 A2991 RMK AO2 SLP127 T00441033
KBDR 120552Z AUTO 16004KT 10SM BKN080 BKN100 03/M04 A2993 RMK AO2 SLP135 T00331039 10044 20017 58022
KBDR 120452Z AUTO 17004KT 10SM OVC085 04/M04 A2996 RMK AO2 SLP144 T00391044 400560011
KBDR 120352Z AUTO 00000KT 10SM OVC085 03/M04 A2998 RMK AO2 SLP151 T00281039
KBDR 120252Z 35004KT 10SM OVC100 03/M04 A3000 RMK AO2 SLP157 T00281044 58007
KBDR 120152Z 01004KT 10SM FEW046 OVC120 03/M06 A3000 RMK AO2 SLP160 T00331056
KBDR 120052Z 00000KT 10SM FEW120 02/M05 A3002 RMK AO2 SLP164 T00221050
KBDR 112352Z 00000KT 10SM CLR 03/M06 A3002 RMK AO2 SLP164 T00331061 10056 20028 51005
KBDR 112252Z 35003KT 10SM CLR 03/M07 A3001 RMK AO2 SLP162 T00331067
KBDR 112152Z 33004KT 10SM CLR 03/M07 A3001 RMK AO2 SLP161 T00331072
KBDR 112052Z 32007KT 10SM FEW050 04/M07 A3000 RMK AO2 SLP159 T00391072 53008
KBDR 111952Z 29005KT 10SM FEW050 05/M07 A2998 RMK AO2 SLP152 T00501067
KBDR 111852Z 30009KT 10SM CLR 05/M07 A2997 RMK AO2 SLP149 T00501072
KBDR 111752Z 27006KT 10SM CLR 05/M06 A2998 RMK AO2 SLP150 T00501056 10050 20011 58014
KBDR 111652Z 29005KT 10SM CLR 04/M06 A3000 RMK AO2 SLP159 T00441056
KBDR 111552Z 29011KT 10SM CLR 03/M06 A3002 RMK AO2 SLP165 T00331056
KBDR 111452Z 26008KT 10SM CLR 03/M05 A3002 RMK AO2 SLP164 T00281050 53005
KBDR 111352Z 26008KT 10SM SCT075 02/M04 A3002 RMK AO2 SLP164 T00221044
KBDR 111252Z 25011G17KT 10SM BKN075 02/M04 A3000 RMK AO2 SLP159 T00171044
KBDR 111152Z 26010G16KT 10SM OVC100 02/M04 A3000 RMK AO2 SNE1053 SLP159 P0000 60000 T00171039 10022 20017 52011
KBDR 111052Z AUTO 23014KT 8SM -SN OVC043 02/M04 A2999 RMK AO2 SNB37 SLP156 P0000 T00171039
KBDR 110952Z AUTO 26010G16KT 10SM OVC080 02/M06 A2998 RMK AO2 SLP151 T00221056
KBDR 110852Z AUTO 26007KT 10SM OVC095 02/M06 A2997 RMK AO2 SLP148 T00171056 58006
KBDR 110752Z AUTO 26008KT 10SM SCT100 BKN120 02/M06 A2997 RMK AO2 SLP149 T00221056
KBDR 110652Z AUTO 25011G18KT 10SM OVC070 02/M06 A2998 RMK AO2 SLP153 T00221061
KBDR 110552Z AUTO 26009G15KT 10SM OVC090 02/M06 A2999 RMK AO2 SLP154 T00221056 10028 20022 58004
KBDR 110452Z AUTO 25010G17KT 10SM OVC095 03/M06 A3000 RMK AO2 SLP158 T00281056 400441011
KBDR 110352Z AUTO 24011G18KT 10SM FEW120 03/M06 A2999 RMK AO2 SLP155 T00281056
KBDR 110252Z 25010G19KT 10SM FEW120 03/M06 A3000 RMK AO2 SLP157 T00281056 51011